Time;durP1;ratioP1;P1;durP2;ratioP2;P2;SDS_P1;SDS_P2;PMS_P1;PMS_P2;Temp;Humidity;BMP_temperature;BMP_pressure;BME280_temperature;BME280_humidity;BME280_pressure;Samples;Min_cycle;Max_cycle;Signal;HPM_P1;HPM_P2
2023/12/23 10:54:48;;;;;;;0.70;0.30;;;11.70;99.90;;;;;;4881106;23;20261;-77
2023/12/23 10:57:16;;;;;;;2.47;0.80;;;11.60;99.90;;;;;;4880966;29;20727;-78
2023/12/23 10:59:43;;;;;;;9.50;0.50;;;11.60;99.90;;;;;;4880267;29;20207;-77
2023/12/23 11:02:13;;;;;;;2.23;0.60;;;11.70;99.90;;;;;;4889048;29;20314;-79
2023/12/23 11:04:44;;;;;;;0.50;0.33;;;11.80;99.90;;;;;;4881473;29;20211;-77
2023/12/23 11:07:15;;;;;;;2.00;0.50;;;11.80;99.90;;;;;;4861636;29;20564;-76
2023/12/23 11:09:44;;;;;;;1.20;0.40;;;11.90;99.90;;;;;;4861299;29;20276;-77
2023/12/23 11:12:13;;;;;;;2.87;0.50;;;11.80;99.90;;;;;;4873130;29;20266;-77
2023/12/23 11:14:40;;;;;;;1.73;0.40;;;11.90;99.90;;;;;;4879022;29;20238;-76
2023/12/23 11:17:23;;;;;;;1.30;0.30;;;12.00;99.90;;;;;;4897555;29;20239;-77
2023/12/23 11:19:50;;;;;;;0.97;0.33;;;12.10;99.90;;;;;;4897566;29;20207;-75
2023/12/23 11:22:25;;;;;;;3.00;0.50;;;12.10;99.90;;;;;;4888178;29;20281;-78
2023/12/23 11:24:52;;;;;;;3.30;0.70;;;12.00;99.90;;;;;;4879155;29;20206;-76
2023/12/23 11:27:35;;;;;;;1.03;0.30;;;12.10;99.90;;;;;;4879321;29;20219;-75
2023/12/23 11:30:05;;;;;;;2.30;0.50;;;12.00;99.90;;;;;;4879573;29;20290;-76
2023/12/23 11:32:37;;;;;;;0.53;0.30;;;12.00;99.90;;;;;;4879816;29;20226;-77
2023/12/23 11:35:08;;;;;;;0.73;0.40;;;12.10;99.90;;;;;;4879191;29;20215;-77
2023/12/23 11:37:53;;;;;;;1.17;0.40;;;12.10;99.90;;;;;;4878547;29;20286;-77
2023/12/23 11:40:21;;;;;;;2.93;0.53;;;12.20;99.90;;;;;;4874941;29;20210;-78
2023/12/23 11:42:55;;;;;;;1.30;0.30;;;12.20;99.90;;;;;;4880972;29;20596;-76
2023/12/23 11:45:26;;;;;;;0.83;0.40;;;12.20;99.90;;;;;;4884997;29;20214;-78
2023/12/23 11:47:53;;;;;;;2.10;0.40;;;12.10;99.90;;;;;;4881490;29;20301;-79
2023/12/23 11:50:20;;;;;;;1.53;0.40;;;12.10;99.90;;;;;;4878721;29;20306;-78
2023/12/23 11:52:47;;;;;;;4.00;0.60;;;12.00;99.90;;;;;;4878942;29;20211;-78
2023/12/23 11:55:16;;;;;;;1.23;0.40;;;12.10;99.90;;;;;;4878769;29;20215;-78
2023/12/23 11:57:43;;;;;;;1.17;0.40;;;12.00;99.90;;;;;;4878402;29;20599;-77
2023/12/23 12:00:12;;;;;;;2.77;0.40;;;12.10;99.90;;;;;;4878478;29;20656;-76
2023/12/23 12:02:39;;;;;;;2.30;0.40;;;12.10;99.90;;;;;;4878745;29;20219;-77
2023/12/23 12:05:07;;;;;;;1.90;0.40;;;12.20;99.90;;;;;;4878947;29;20571;-78
2023/12/23 12:07:35;;;;;;;1.73;0.40;;;12.30;99.90;;;;;;4878811;29;20254;-80
2023/12/23 12:10:02;;;;;;;5.50;0.30;;;12.30;99.90;;;;;;4878833;29;20665;-77
2023/12/23 12:12:29;;;;;;;1.33;0.47;;;12.30;99.90;;;;;;4878823;29;20580;-80
2023/12/23 12:14:57;;;;;;;2.37;0.43;;;12.40;99.90;;;;;;4879253;29;20214;-79
2023/12/23 12:17:25;;;;;;;2.70;0.67;;;12.40;99.90;;;;;;4879254;29;20281;-80
2023/12/23 12:19:52;;;;;;;2.83;0.30;;;12.50;99.90;;;;;;4879514;29;20243;-75
2023/12/23 12:22:19;;;;;;;3.40;0.60;;;12.40;99.90;;;;;;4879305;29;20658;-79
2023/12/23 12:24:47;;;;;;;4.57;0.57;;;12.50;99.90;;;;;;4878907;29;20211;-74
2023/12/23 12:27:14;;;;;;;1.53;0.40;;;12.30;99.90;;;;;;4880267;29;20211;-77
2023/12/23 12:29:41;;;;;;;1.50;0.30;;;12.40;99.90;;;;;;4878104;29;20215;-75
2023/12/23 12:32:12;;;;;;;1.77;0.20;;;12.40;99.90;;;;;;4878320;29;20238;-75
2023/12/23 12:34:41;;;;;;;3.00;0.50;;;12.30;99.90;;;;;;4878455;29;20211;-75
2023/12/23 12:37:10;;;;;;;1.03;0.40;;;12.20;99.90;;;;;;4898956;29;20233;-76
2023/12/23 12:39:37;;;;;;;7.60;0.60;;;12.20;99.90;;;;;;4882932;29;20211;-76
2023/12/23 12:42:05;;;;;;;2.03;0.30;;;12.20;99.90;;;;;;4882504;29;20255;-78
2023/12/23 12:44:33;;;;;;;4.43;0.57;;;12.10;99.90;;;;;;4886021;29;20231;-76
2023/12/23 12:47:00;;;;;;;1.90;0.40;;;12.20;99.90;;;;;;4882553;29;20231;-75
2023/12/23 12:49:28;;;;;;;1.57;0.40;;;12.30;99.90;;;;;;4882554;29;20222;-77
2023/12/23 12:51:56;;;;;;;3.67;0.60;;;12.30;99.90;;;;;;4884568;29;20235;-78
2023/12/23 12:54:25;;;;;;;3.07;0.40;;;12.30;99.90;;;;;;4881737;29;20230;-81
2023/12/23 12:56:52;;;;;;;5.10;0.60;;;12.10;99.90;;;;;;4896415;29;20238;-80
2023/12/23 12:59:20;;;;;;;2.37;0.40;;;12.10;99.90;;;;;;4894633;29;20246;-81
2023/12/23 13:01:47;;;;;;;3.17;0.40;;;11.90;99.90;;;;;;4881850;29;20238;-80
2023/12/23 13:04:14;;;;;;;2.10;0.30;;;11.80;99.90;;;;;;4881811;29;20215;-80
2023/12/23 13:06:42;;;;;;;4.33;1.20;;;11.80;99.90;;;;;;4881909;29;20207;-80
2023/12/23 13:09:10;;;;;;;2.53;0.60;;;11.90;99.90;;;;;;4881863;29;20219;-80
2023/12/23 13:11:37;;;;;;;3.90;0.40;;;11.80;99.90;;;;;;4881456;29;20623;-81
2023/12/23 13:14:04;;;;;;;2.23;0.70;;;11.80;99.90;;;;;;4881931;29;20659;-79
2023/12/23 13:16:31;;;;;;;3.03;0.50;;;11.90;99.90;;;;;;4881755;29;20269;-81
2023/12/23 13:18:58;;;;;;;1.03;0.40;;;11.80;99.90;;;;;;4882096;29;20207;-77
2023/12/23 13:21:26;;;;;;;2.27;0.50;;;11.80;99.90;;;;;;4881178;29;20291;-80
2023/12/23 13:23:53;;;;;;;3.70;0.53;;;11.80;99.90;;;;;;4881713;29;20221;-77
2023/12/23 13:26:21;;;;;;;1.33;0.50;;;11.80;99.90;;;;;;4881476;29;20204;-79
2023/12/23 13:28:49;;;;;;;2.57;0.40;;;11.90;99.90;;;;;;4881570;29;20287;-79
2023/12/23 13:31:17;;;;;;;1.17;0.40;;;11.70;99.90;;;;;;4881464;29;20342;-77
2023/12/23 13:33:44;;;;;;;2.60;0.60;;;11.70;99.90;;;;;;4881567;29;20242;-79
2023/12/23 13:36:12;;;;;;;4.50;0.60;;;11.70;99.90;;;;;;4888254;29;20289;-79
2023/12/23 13:38:40;;;;;;;3.87;0.60;;;11.80;99.90;;;;;;4897195;29;20218;-77
2023/12/23 13:41:09;;;;;;;3.33;0.43;;;11.90;99.90;;;;;;4881691;29;21658;-80
2023/12/23 13:43:37;;;;;;;3.23;0.70;;;11.80;99.90;;;;;;4883116;29;20207;-80
2023/12/23 13:46:06;;;;;;;2.63;0.50;;;11.80;99.90;;;;;;4881145;29;20238;-76
2023/12/23 13:48:34;;;;;;;0.40;0.30;;;11.80;99.90;;;;;;4879795;29;20215;-77
2023/12/23 13:51:02;;;;;;;2.37;0.47;;;11.80;99.90;;;;;;4884484;29;20222;-76
2023/12/23 13:53:29;;;;;;;1.30;0.40;;;11.70;99.90;;;;;;4881118;29;20222;-80
2023/12/23 13:55:56;;;;;;;2.80;0.50;;;11.80;99.90;;;;;;4880713;29;20307;-80
2023/12/23 13:58:23;;;;;;;1.47;0.40;;;11.90;99.90;;;;;;4880918;29;20243;-81
2023/12/23 14:00:54;;;;;;;2.03;0.30;;;11.80;99.90;;;;;;4883896;29;20222;-79
2023/12/23 14:03:21;;;;;;;1.00;0.30;;;11.90;99.90;;;;;;4900288;29;20214;-78
2023/12/23 14:05:48;;;;;;;4.90;0.50;;;11.90;99.90;;;;;;4899967;29;20222;-79
2023/12/23 14:08:15;;;;;;;0.70;0.30;;;12.00;99.90;;;;;;4899854;29;20246;-80
2023/12/23 14:10:43;;;;;;;1.63;0.30;;;12.00;99.90;;;;;;4899256;29;20231;-80
2023/12/23 14:13:10;;;;;;;1.13;0.50;;;11.90;99.90;;;;;;4880521;29;20222;-80
2023/12/23 14:15:39;;;;;;;1.23;0.37;;;11.80;99.90;;;;;;4880781;29;20250;-80
2023/12/23 14:18:08;;;;;;;1.07;0.30;;;11.90;99.90;;;;;;4881037;29;20250;-79
2023/12/23 14:20:35;;;;;;;1.40;0.60;;;11.80;99.90;;;;;;4880920;29;20235;-80
2023/12/23 14:23:03;;;;;;;0.97;0.30;;;11.80;99.90;;;;;;4880735;29;20215;-79
2023/12/23 14:25:30;;;;;;;0.90;0.27;;;11.70;99.90;;;;;;4880908;29;20254;-80
2023/12/23 14:27:59;;;;;;;2.13;0.33;;;11.80;99.90;;;;;;4881234;29;20242;-78
2023/12/23 14:30:26;;;;;;;3.07;0.60;;;11.80;99.90;;;;;;4880842;29;20222;-78
2023/12/23 14:32:53;;;;;;;2.10;0.37;;;11.90;99.90;;;;;;4880465;29;20628;-79
2023/12/23 14:35:22;;;;;;;1.80;0.40;;;11.80;99.90;;;;;;4880780;29;20231;-77
2023/12/23 14:37:49;;;;;;;3.30;0.50;;;11.80;99.90;;;;;;4880813;29;20270;-82
2023/12/23 14:40:17;;;;;;;1.20;0.40;;;11.90;99.90;;;;;;4880269;29;20250;-79
2023/12/23 14:42:44;;;;;;;1.23;0.30;;;11.90;99.90;;;;;;4880375;29;20566;-79
2023/12/23 14:45:11;;;;;;;0.70;0.30;;;11.90;99.90;;;;;;4880893;29;20268;-82
2023/12/23 14:47:39;;;;;;;0.87;0.30;;;11.90;99.90;;;;;;4880894;29;20207;-77
2023/12/23 14:50:06;;;;;;;0.47;0.30;;;11.90;99.90;;;;;;4880696;29;20218;-81
2023/12/23 14:52:35;;;;;;;0.87;0.40;;;11.90;99.90;;;;;;4885361;29;20235;-79
2023/12/23 14:55:02;;;;;;;0.87;0.33;;;11.80;99.90;;;;;;4879542;29;20219;-76
2023/12/23 14:57:29;;;;;;;2.87;0.60;;;11.70;99.90;;;;;;4879604;29;20325;-77
2023/12/23 14:59:57;;;;;;;2.23;0.37;;;11.70;99.90;;;;;;4879078;29;20207;-77
2023/12/23 15:02:24;;;;;;;1.57;0.73;;;11.60;99.90;;;;;;4884071;29;20283;-78
2023/12/23 15:04:50;;;;;;;0.63;0.47;;;11.60;99.90;;;;;;4879786;29;20218;-77
2023/12/23 15:07:18;;;;;;;0.90;0.30;;;11.60;99.90;;;;;;4878848;29;20297;-76
2023/12/23 15:09:47;;;;;;;2.93;0.40;;;11.60;99.90;;;;;;4879379;29;20298;-76
2023/12/23 15:12:17;;;;;;;0.60;0.20;;;11.70;99.90;;;;;;4879383;29;20586;-76
2023/12/23 15:14:44;;;;;;;0.73;0.50;;;11.70;99.90;;;;;;4879735;29;20215;-77
2023/12/23 15:17:12;;;;;;;0.93;0.30;;;11.70;99.90;;;;;;4879391;29;20283;-80
2023/12/23 15:19:39;;;;;;;4.70;0.83;;;11.70;99.90;;;;;;4879149;29;20211;-78
2023/12/23 15:22:06;;;;;;;2.07;0.50;;;11.70;99.90;;;;;;4879431;29;20242;-79
2023/12/23 15:24:34;;;;;;;1.57;0.40;;;11.70;99.90;;;;;;4879264;29;20263;-78
2023/12/23 15:27:03;;;;;;;0.73;0.40;;;11.80;99.90;;;;;;4879244;29;20595;-79
2023/12/23 15:29:30;;;;;;;1.80;0.60;;;11.70;99.90;;;;;;4879363;29;20685;-79
2023/12/23 15:31:57;;;;;;;2.10;0.50;;;11.70;99.90;;;;;;4879141;29;20782;-78
2023/12/23 15:34:24;;;;;;;0.83;0.33;;;11.70;99.90;;;;;;4879230;29;20568;-77
2023/12/23 15:36:51;;;;;;;2.30;0.40;;;11.60;99.90;;;;;;4878873;29;20199;-78
2023/12/23 15:39:18;;;;;;;1.00;0.63;;;11.70;99.90;;;;;;4879162;29;20563;-80
2023/12/23 15:41:45;;;;;;;1.83;0.60;;;11.70;99.90;;;;;;4879239;29;20254;-78
2023/12/23 15:44:14;;;;;;;2.23;0.50;;;11.70;99.90;;;;;;4881020;29;20298;-80
2023/12/23 15:46:41;;;;;;;4.83;0.50;;;11.60;99.90;;;;;;4882439;29;20211;-76
2023/12/23 15:49:08;;;;;;;4.20;0.87;;;11.60;99.90;;;;;;4890913;29;20237;-76
2023/12/23 15:51:35;;;;;;;1.70;0.53;;;11.60;99.90;;;;;;4890988;29;20231;-76
2023/12/23 15:54:02;;;;;;;1.17;1.03;;;11.60;99.90;;;;;;4887817;29;20252;-79
2023/12/23 15:56:29;;;;;;;2.80;0.37;;;11.60;99.90;;;;;;4880345;29;20215;-76
2023/12/23 15:58:57;;;;;;;1.07;0.40;;;11.70;99.90;;;;;;4880147;29;20525;-77
2023/12/23 16:01:26;;;;;;;1.23;0.50;;;11.80;99.90;;;;;;4879089;29;20239;-75
2023/12/23 16:03:52;;;;;;;1.53;0.30;;;11.80;99.90;;;;;;4879019;29;20214;-78
2023/12/23 16:06:20;;;;;;;0.57;0.37;;;11.70;99.90;;;;;;4879447;29;20211;-79
2023/12/23 16:08:47;;;;;;;4.03;0.53;;;11.70;99.90;;;;;;4879418;29;20254;-79
2023/12/23 16:11:14;;;;;;;1.87;0.50;;;11.80;99.90;;;;;;4881097;29;20240;-79
2023/12/23 16:13:47;;;;;;;1.30;1.13;;;11.80;99.90;;;;;;4883074;29;20207;-81
2023/12/23 16:16:14;;;;;;;0.70;0.30;;;11.70;99.90;;;;;;4883069;29;20211;-80
2023/12/23 16:18:43;;;;;;;2.30;0.30;;;11.80;99.90;;;;;;4882759;29;20242;-78
2023/12/23 16:21:11;;;;;;;2.20;0.50;;;11.80;99.90;;;;;;4882040;29;20786;-79
2023/12/23 16:23:38;;;;;;;1.03;0.33;;;11.80;99.90;;;;;;4882530;29;20294;-78
2023/12/23 16:26:12;;;;;;;2.93;0.30;;;11.80;99.90;;;;;;4882345;29;20211;-78
2023/12/23 16:28:39;;;;;;;3.27;0.37;;;11.80;99.90;;;;;;4882155;29;20238;-76
2023/12/23 16:31:06;;;;;;;2.13;0.30;;;11.80;99.90;;;;;;4882692;29;20235;-77
2023/12/23 16:33:33;;;;;;;2.43;0.53;;;11.80;99.90;;;;;;4882572;29;20218;-75
2023/12/23 16:36:01;;;;;;;1.77;0.30;;;11.70;99.90;;;;;;4882526;29;20211;-76
2023/12/23 16:38:28;;;;;;;1.03;0.40;;;11.60;99.90;;;;;;4882568;29;20243;-77
2023/12/23 16:40:56;;;;;;;1.80;0.50;;;11.60;99.90;;;;;;4882504;29;20231;-80
2023/12/23 16:43:23;;;;;;;3.03;0.50;;;11.50;99.90;;;;;;4882353;29;20220;-78
2023/12/23 16:45:50;;;;;;;0.53;0.40;;;11.50;99.90;;;;;;4881985;29;20233;-77
2023/12/23 16:48:17;;;;;;;0.40;0.30;;;11.50;99.90;;;;;;4882085;29;20250;-76
2023/12/23 16:50:45;;;;;;;1.47;0.40;;;11.50;99.90;;;;;;4882768;29;20249;-81
2023/12/23 16:53:13;;;;;;;1.73;0.43;;;11.40;99.90;;;;;;4882116;29;20211;-78
2023/12/23 16:55:40;;;;;;;0.50;0.30;;;11.30;99.90;;;;;;4881735;29;20238;-80
2023/12/23 16:58:07;;;;;;;1.50;0.30;;;11.30;99.90;;;;;;4881896;29;20651;-78
2023/12/23 17:00:34;;;;;;;2.53;0.50;;;11.30;99.90;;;;;;4882652;29;20376;-77
2023/12/23 17:03:01;;;;;;;2.43;0.40;;;11.30;99.90;;;;;;4882480;29;20304;-81
2023/12/23 17:05:28;;;;;;;2.73;0.60;;;11.30;99.90;;;;;;4882199;29;20252;-80
2023/12/23 17:07:55;;;;;;;7.50;0.50;;;11.20;99.90;;;;;;4882359;29;20230;-80
2023/12/23 17:10:25;;;;;;;1.73;0.37;;;11.10;99.90;;;;;;4882003;29;20590;-79
2023/12/23 17:12:52;;;;;;;4.67;0.67;;;11.10;99.90;;;;;;4883271;29;20215;-81
2023/12/23 17:15:19;;;;;;;3.90;0.67;;;11.10;99.90;;;;;;4883552;29;20211;-77
2023/12/23 17:17:46;;;;;;;1.13;0.40;;;11.00;99.90;;;;;;4881956;29;20287;-80
2023/12/23 17:20:13;;;;;;;3.47;0.80;;;11.00;99.90;;;;;;4885009;29;20283;-80
2023/12/23 17:22:40;;;;;;;1.23;0.50;;;11.00;99.90;;;;;;4885214;29;20207;-79
2023/12/23 17:25:08;;;;;;;2.00;0.60;;;11.00;99.90;;;;;;4883577;29;20279;-80
2023/12/23 17:27:37;;;;;;;1.20;0.40;;;10.90;99.90;;;;;;4883945;29;20215;-77
2023/12/23 17:30:05;;;;;;;1.60;0.67;;;10.90;99.90;;;;;;4887528;29;20663;-78
2023/12/23 17:32:32;;;;;;;1.43;0.90;;;10.80;99.90;;;;;;4889452;29;20235;-80
2023/12/23 17:34:59;;;;;;;1.23;0.40;;;10.80;99.90;;;;;;4886683;29;20758;-79
2023/12/23 17:37:26;;;;;;;1.70;0.60;;;10.80;99.90;;;;;;4886388;29;20211;-81
2023/12/23 17:39:53;;;;;;;5.80;0.90;;;10.80;99.90;;;;;;4881516;29;20702;-78
2023/12/23 17:42:20;;;;;;;1.60;0.37;;;10.70;99.90;;;;;;4881276;29;20269;-80
2023/12/23 17:44:49;;;;;;;3.13;0.70;;;10.70;99.90;;;;;;4881798;29;20215;-79
2023/12/23 17:47:16;;;;;;;6.90;0.60;;;10.70;99.90;;;;;;4881124;29;20211;-77
2023/12/23 17:49:43;;;;;;;2.97;0.60;;;10.60;99.90;;;;;;4881571;29;20238;-80
2023/12/23 17:52:10;;;;;;;2.97;0.60;;;10.60;99.90;;;;;;4881114;29;20235;-80
2023/12/23 17:54:37;;;;;;;2.30;0.63;;;10.50;99.90;;;;;;4880948;29;20226;-81
2023/12/23 17:57:04;;;;;;;3.00;0.70;;;10.50;99.90;;;;;;4881189;29;20210;-80
2023/12/23 17:59:31;;;;;;;1.83;0.80;;;10.50;99.90;;;;;;4881315;29;20538;-78
2023/12/23 18:01:59;;;;;;;5.03;0.97;;;10.50;99.90;;;;;;4881115;29;20742;-78
2023/12/23 18:04:28;;;;;;;4.27;0.77;;;10.40;99.90;;;;;;4881175;29;20254;-78
2023/12/23 18:06:55;;;;;;;1.20;0.50;;;10.30;99.90;;;;;;4879909;29;20211;-76
2023/12/23 18:09:23;;;;;;;1.20;0.50;;;10.30;99.90;;;;;;4880644;29;20608;-77
2023/12/23 18:11:50;;;;;;;2.63;0.63;;;10.30;99.90;;;;;;4880403;29;20725;-74
2023/12/23 18:14:17;;;;;;;1.23;0.63;;;10.30;99.90;;;;;;4874257;29;20214;-81
2023/12/23 18:16:44;;;;;;;4.07;0.60;;;10.30;99.90;;;;;;4879170;29;20211;-78
2023/12/23 18:19:12;;;;;;;1.63;1.00;;;10.40;99.90;;;;;;4879184;29;20239;-81
2023/12/23 18:21:39;;;;;;;3.03;0.80;;;10.40;99.90;;;;;;4878319;29;20264;-82
2023/12/23 18:24:06;;;;;;;0.90;0.50;;;10.40;99.90;;;;;;4882591;29;20267;-81
2023/12/23 18:26:33;;;;;;;1.33;0.60;;;10.30;99.90;;;;;;4877097;29;20275;-78
2023/12/23 18:29:00;;;;;;;1.03;0.57;;;10.30;99.90;;;;;;4869282;29;20904;-77
2023/12/23 18:31:27;;;;;;;1.20;0.57;;;10.20;99.90;;;;;;4874569;29;20635;-77
2023/12/23 18:33:54;;;;;;;0.73;0.50;;;10.30;99.90;;;;;;4879418;29;20544;-78
2023/12/23 18:36:23;;;;;;;2.37;0.70;;;10.30;99.90;;;;;;4880593;29;20214;-77
2023/12/23 18:38:50;;;;;;;2.93;0.90;;;10.30;99.90;;;;;;4879390;29;20262;-78
2023/12/23 18:41:17;;;;;;;2.43;0.70;;;10.30;99.90;;;;;;4879228;29;20231;-77
2023/12/23 18:43:44;;;;;;;0.53;0.37;;;10.40;99.90;;;;;;4877838;29;20575;-78
2023/12/23 18:46:11;;;;;;;4.83;0.80;;;10.50;99.90;;;;;;4869777;29;20212;-78
2023/12/23 18:48:38;;;;;;;1.90;0.50;;;10.60;99.90;;;;;;4870998;29;20215;-78
2023/12/23 18:51:06;;;;;;;1.10;0.60;;;10.70;99.90;;;;;;4878700;29;20265;-78
2023/12/23 18:53:34;;;;;;;2.70;0.70;;;10.70;99.90;;;;;;4872348;29;20694;-78
2023/12/23 18:56:01;;;;;;;2.50;0.80;;;10.80;99.90;;;;;;4878790;29;20263;-78
2023/12/23 18:58:28;;;;;;;1.87;0.47;;;10.80;99.90;;;;;;4871375;29;20235;-77
2023/12/23 19:00:57;;;;;;;2.70;0.50;;;10.70;99.90;;;;;;4869735;29;20583;-78
2023/12/23 19:03:24;;;;;;;5.77;0.50;;;10.60;99.90;;;;;;4879270;29;20211;-78
2023/12/23 19:05:51;;;;;;;1.47;0.50;;;10.60;99.90;;;;;;4879091;29;20242;-77
2023/12/23 19:08:18;;;;;;;1.17;0.70;;;10.60;99.90;;;;;;4879212;29;20571;-78
2023/12/23 19:10:46;;;;;;;1.77;0.60;;;10.60;99.90;;;;;;4880992;29;20234;-78
2023/12/23 19:13:13;;;;;;;1.83;0.50;;;10.60;99.90;;;;;;4882029;29;20242;-78
2023/12/23 19:15:40;;;;;;;2.73;0.67;;;10.60;99.90;;;;;;4887468;29;20263;-78
2023/12/23 19:18:08;;;;;;;1.40;0.40;;;10.60;99.90;;;;;;4879568;29;20237;-79
2023/12/23 19:20:34;;;;;;;1.00;0.60;;;10.60;99.90;;;;;;4875276;29;20256;-78
2023/12/23 19:23:04;;;;;;;2.27;0.50;;;10.80;99.90;;;;;;4871843;29;20211;-79
2023/12/23 19:25:31;;;;;;;2.73;0.60;;;10.80;99.90;;;;;;4874956;29;20247;-79
2023/12/23 19:27:59;;;;;;;1.23;0.70;;;10.80;99.90;;;;;;4879980;29;20228;-79
2023/12/23 19:30:27;;;;;;;2.63;0.70;;;10.70;99.90;;;;;;4877558;29;20257;-79
2023/12/23 19:32:54;;;;;;;1.83;0.70;;;10.70;99.90;;;;;;4880388;29;20215;-78
2023/12/23 19:35:20;;;;;;;1.63;0.60;;;10.60;99.90;;;;;;4879930;29;20250;-79
2023/12/23 19:37:48;;;;;;;2.20;1.00;;;10.70;99.90;;;;;;4879195;29;20242;-79
2023/12/23 19:40:15;;;;;;;2.07;0.80;;;10.60;99.90;;;;;;4878682;29;20235;-77
2023/12/23 19:42:42;;;;;;;1.17;0.70;;;10.60;99.90;;;;;;4879663;29;20267;-78
2023/12/23 19:45:13;;;;;;;4.40;1.00;;;10.60;99.90;;;;;;4878371;29;20211;-78
2023/12/23 19:47:40;;;;;;;3.53;1.47;;;10.70;99.90;;;;;;4871582;29;20306;-78
2023/12/23 19:50:08;;;;;;;1.70;0.67;;;10.70;99.90;;;;;;4878651;29;20287;-79
2023/12/23 19:52:35;;;;;;;4.60;0.87;;;10.70;99.90;;;;;;4878640;29;20231;-78
2023/12/23 19:55:02;;;;;;;3.40;0.70;;;10.70;99.90;;;;;;4873109;29;20264;-78
2023/12/23 19:57:29;;;;;;;1.87;0.63;;;10.70;99.90;;;;;;4877588;29;20310;-77
2023/12/23 19:59:56;;;;;;;2.37;0.70;;;10.70;99.90;;;;;;4878842;29;20243;-79
2023/12/23 20:02:25;;;;;;;1.80;0.60;;;10.70;99.90;;;;;;4878587;29;20231;-78
2023/12/23 20:04:52;;;;;;;1.57;0.90;;;10.70;99.90;;;;;;4878350;29;20635;-78
2023/12/23 20:07:19;;;;;;;2.67;0.90;;;10.80;99.90;;;;;;4878329;29;20540;-79
2023/12/23 20:09:47;;;;;;;4.00;0.57;;;10.70;99.90;;;;;;4878382;29;20211;-79
2023/12/23 20:12:14;;;;;;;1.57;0.73;;;10.80;99.90;;;;;;4878302;29;20223;-78
2023/12/23 20:14:41;;;;;;;1.77;0.67;;;10.80;99.90;;;;;;4878378;29;20211;-78
2023/12/23 20:17:08;;;;;;;3.67;0.70;;;10.80;99.90;;;;;;4884299;29;20211;-78
2023/12/23 20:19:36;;;;;;;3.47;1.47;;;10.80;99.90;;;;;;4878366;29;20242;-78
2023/12/23 20:22:04;;;;;;;1.40;0.60;;;10.80;99.90;;;;;;4883515;29;20290;-78
2023/12/23 20:24:31;;;;;;;2.30;0.60;;;10.80;99.90;;;;;;4878026;29;20298;-78
2023/12/23 20:26:58;;;;;;;4.23;0.70;;;10.80;99.90;;;;;;4877723;29;20210;-78
2023/12/23 20:29:25;;;;;;;3.30;0.67;;;10.80;99.90;;;;;;4873736;29;20215;-78
2023/12/23 20:31:52;;;;;;;3.30;0.90;;;10.70;99.90;;;;;;4879064;29;20303;-77
2023/12/23 20:34:19;;;;;;;5.47;0.73;;;10.70;99.90;;;;;;4878828;29;20582;-78
2023/12/23 20:36:48;;;;;;;4.37;0.80;;;10.70;99.90;;;;;;4878228;29;20203;-78
2023/12/23 20:39:15;;;;;;;0.77;0.40;;;10.70;99.90;;;;;;4878292;29;20239;-78
2023/12/23 20:41:42;;;;;;;2.93;0.57;;;10.70;99.90;;;;;;4878047;29;20238;-78
2023/12/23 20:44:09;;;;;;;1.37;0.70;;;10.80;99.90;;;;;;4882317;29;20208;-78
2023/12/23 20:46:36;;;;;;;3.93;0.50;;;10.90;99.90;;;;;;4883058;29;20575;-78
2023/12/23 20:49:03;;;;;;;1.80;0.40;;;10.80;99.90;;;;;;4882416;29;20723;-78
2023/12/23 20:51:30;;;;;;;4.53;0.80;;;10.90;99.90;;;;;;4887676;29;20233;-79
2023/12/23 20:53:59;;;;;;;0.97;0.43;;;10.80;99.90;;;;;;4890185;29;20226;-78
2023/12/23 20:56:26;;;;;;;1.80;0.40;;;10.80;99.90;;;;;;4869000;29;20218;-79
2023/12/23 20:58:53;;;;;;;1.33;0.43;;;10.80;99.90;;;;;;4881776;29;20373;-78
2023/12/23 21:01:22;;;;;;;1.10;0.50;;;10.80;99.90;;;;;;4881861;29;20231;-78
2023/12/23 21:03:50;;;;;;;0.93;0.47;;;10.80;99.90;;;;;;4875373;29;20211;-78
2023/12/23 21:06:17;;;;;;;1.40;0.57;;;10.90;99.90;;;;;;4875829;29;20218;-78
2023/12/23 21:08:44;;;;;;;2.73;0.60;;;11.00;99.90;;;;;;4881150;29;20200;-78
2023/12/23 21:11:14;;;;;;;2.17;0.70;;;10.90;99.90;;;;;;4881152;29;20223;-79
2023/12/23 21:13:41;;;;;;;2.80;0.80;;;10.80;99.90;;;;;;4881345;29;20210;-78
2023/12/23 21:16:10;;;;;;;2.87;0.43;;;10.80;99.90;;;;;;4882118;29;20207;-79
2023/12/23 21:18:37;;;;;;;2.50;0.40;;;10.80;99.90;;;;;;4888292;29;20254;-79
2023/12/23 21:21:04;;;;;;;2.10;0.63;;;10.90;99.90;;;;;;4884576;29;20638;-78
2023/12/23 21:23:31;;;;;;;1.13;0.30;;;10.90;99.90;;;;;;4881168;29;20245;-78
2023/12/23 21:25:58;;;;;;;1.87;0.53;;;10.90;99.90;;;;;;4881100;29;20211;-78
2023/12/23 21:28:27;;;;;;;1.13;0.40;;;10.90;99.90;;;;;;4878160;29;20299;-78
2023/12/23 21:30:54;;;;;;;2.40;0.50;;;10.90;99.90;;;;;;4885445;29;20251;-78
2023/12/23 21:33:23;;;;;;;1.27;0.50;;;10.80;99.90;;;;;;4880951;29;20211;-78
2023/12/23 21:35:50;;;;;;;5.70;0.80;;;10.90;99.90;;;;;;4880154;29;20211;-78
2023/12/23 21:38:20;;;;;;;1.67;0.40;;;10.90;99.90;;;;;;4874088;29;20231;-78
2023/12/23 21:40:47;;;;;;;1.10;0.40;;;10.90;99.90;;;;;;4875994;29;20249;-79
2023/12/23 21:43:14;;;;;;;3.27;0.53;;;10.90;99.90;;;;;;4882167;29;20208;-78
2023/12/23 21:45:42;;;;;;;3.63;0.50;;;10.90;99.90;;;;;;4880667;29;20219;-79
2023/12/23 21:48:09;;;;;;;2.73;0.50;;;10.90;99.90;;;;;;4880870;29;20242;-78
2023/12/23 21:50:36;;;;;;;3.60;0.93;;;11.00;99.90;;;;;;4880479;29;20710;-78
2023/12/23 21:53:04;;;;;;;2.83;0.40;;;11.00;99.90;;;;;;4881657;29;20211;-78
2023/12/23 21:55:31;;;;;;;1.97;0.67;;;11.00;99.90;;;;;;4883158;29;20223;-78
2023/12/23 21:57:58;;;;;;;3.13;0.63;;;11.00;99.90;;;;;;4881795;29;20211;-79
2023/12/23 22:00:25;;;;;;;2.20;0.60;;;10.90;99.90;;;;;;4881069;29;20271;-78
2023/12/23 22:02:54;;;;;;;1.57;0.40;;;11.00;99.90;;;;;;4881297;29;20212;-79
2023/12/23 22:05:22;;;;;;;1.27;0.60;;;11.00;99.90;;;;;;4881264;29;20250;-78
2023/12/23 22:07:49;;;;;;;4.10;0.57;;;11.10;99.90;;;;;;4884569;29;20667;-77
2023/12/23 22:10:16;;;;;;;1.57;0.47;;;11.00;99.90;;;;;;4879678;29;20666;-78
2023/12/23 22:12:43;;;;;;;2.00;0.60;;;11.00;99.90;;;;;;4875333;29;20220;-78
2023/12/23 22:15:11;;;;;;;2.63;0.53;;;11.00;99.90;;;;;;4878335;29;20231;-79
2023/12/23 22:17:38;;;;;;;2.93;0.57;;;11.00;99.90;;;;;;4882695;29;20211;-78
2023/12/23 22:20:07;;;;;;;0.43;0.30;;;11.00;99.90;;;;;;4880650;29;20246;-79
2023/12/23 22:22:34;;;;;;;3.67;0.30;;;11.00;99.90;;;;;;4880169;29;20471;-78
2023/12/23 22:25:01;;;;;;;2.90;0.30;;;11.00;99.90;;;;;;4880309;29;20686;-78
2023/12/23 22:27:28;;;;;;;1.27;0.50;;;11.00;99.90;;;;;;4879600;29;20226;-78
2023/12/23 22:29:55;;;;;;;0.70;0.40;;;11.00;99.90;;;;;;4880445;29;20359;-78
2023/12/23 22:32:22;;;;;;;2.30;0.40;;;11.00;99.90;;;;;;4880187;29;20654;-78
2023/12/23 22:34:52;;;;;;;1.07;0.30;;;11.00;99.90;;;;;;4879087;29;20215;-78
2023/12/23 22:37:21;;;;;;;2.43;0.70;;;10.90;99.90;;;;;;4879253;29;20676;-78
2023/12/23 22:39:48;;;;;;;3.80;0.30;;;11.00;99.90;;;;;;4879259;29;20806;-79
2023/12/23 22:42:15;;;;;;;0.73;0.50;;;10.80;99.90;;;;;;4879885;29;20275;-79
2023/12/23 22:44:42;;;;;;;3.10;0.40;;;10.80;99.90;;;;;;4880505;29;20215;-81
2023/12/23 22:47:10;;;;;;;1.00;0.50;;;10.60;99.90;;;;;;4880433;29;20207;-80
2023/12/23 22:49:37;;;;;;;1.00;0.37;;;10.50;99.90;;;;;;4879824;29;20207;-79
2023/12/23 22:52:04;;;;;;;1.50;0.43;;;10.50;99.90;;;;;;4880226;29;20238;-79
